Buoy 46563

sailwx.info

Track history (hours):
 
Tides and Currents Weather Stations Pressure Air Temp Water Temp Dewpoint Dewpoint Depression Visibility Wind Speed Wind Dir Waves Ship Positions

Drifting buoy 46563

Last reported at 2016-Feb-12 15:00 UTC. Time now 2016-Feb-12 20:36 UTC.
Position N 18°07' W 153°47'.

Water temperature 24.8 ° C

Date/timePositionNaut miles runAvg speedWind from/ knotsBaromVisibWave heightAir tempDewpointWater temp
2016-Feb-12 15:00N 18°07' W 153°47'1 0.6 24.8
2016-Feb-12 14:00N 18°08' W 153°48'4 0.6 24.8
2016-Feb-12 06:00N 18°10' W 153°52'0 0.1 24.8
2016-Feb-12 04:00N 18°10' W 153°52'0 0.2 24.8
2016-Feb-12 03:00N 18°10' W 153°52'1 0.5 24.9
2016-Feb-12 02:00N 18°10' W 153°52'1 0.4 24.9
2016-Feb-11 23:00N 18°09' W 153°52'1 0.2 24.9
2016-Feb-11 18:00N 18°08' W 153°51'0 0.1 24.8
2016-Feb-11 15:00N 18°08' W 153°52'1 0.6 24.8
2016-Feb-11 14:00N 18°08' W 153°52'0 0.0 24.8
2016-Feb-11 13:00N 18°08' W 153°52'1 0.6 24.8
2016-Feb-11 11:00N 18°09' W 153°53'3 0.6 24.8
2016-Feb-11 06:00N 18°10' W 153°56'0 0.0 24.9
2016-Feb-11 03:00N 18°10' W 153°56'0 0.1 25.0
2016-Feb-11 01:00N 18°11' W 153°56'1 0.7 25.0
2016-Feb-11 00:00N 18°10' W 153°56'1 0.3 25.0
2016-Feb-10 20:00N 18°10' W 153°58'2 0.8 24.9
2016-Feb-10 17:00N 18°11' W 153°60'1 0.8 24.8
2016-Feb-10 16:00N 18°11' W 154°01'1 0.3 24.8
2016-Feb-10 12:00N 18°12' W 154°01'1 0.2 24.8
2016-Feb-10 08:00N 18°13' W 154°01'0 0.1 24.8
2016-Feb-10 06:00N 18°13' W 154°02'0 0.2 24.8
2016-Feb-10 04:00N 18°12' W 154°02'0 0.1 24.9
2016-Feb-10 03:00N 18°12' W 154°02'0 0.0 25.0
2016-Feb-10 02:00N 18°12' W 154°02'1 0.2 25.0
2016-Feb-09 17:00N 18°12' W 154°03'0 0.2 24.7
2016-Feb-09 16:00N 18°12' W 154°03'1 1.4 24.8
2016-Feb-09 15:00N 18°13' W 154°04'0 0.0 24.8
2016-Feb-09 14:00N 18°13' W 154°04'2 1.1 24.8
2016-Feb-09 12:00N 18°14' W 154°06'4 4.0 24.8
2016-Feb-09 11:00N 18°15' W 154°10'0 0.0 24.8
2016-Feb-09 08:00N 18°15' W 154°10'0 0.0 24.8
2016-Feb-09 07:00N 18°15' W 154°10'1 0.3 24.8
2016-Feb-09 05:00N 18°16' W 154°11'0 0.2 24.8
2016-Feb-09 04:00N 18°15' W 154°11'0 0.0 24.8
2016-Feb-09 03:00N 18°15' W 154°11'1 0.6 24.9
2016-Feb-09 01:00N 18°15' W 154°12'0 0.2 24.9
2016-Feb-08 23:00N 18°15' W 154°12'3 0.4 24.9
2016-Feb-08 15:00N 18°17' W 154°10'0 0.0 24.8
2016-Feb-08 14:00N 18°17' W 154°10'0 0.2 24.9
2016-Feb-08 12:00N 18°17' W 154°10'1 0.2 24.9
2016-Feb-08 04:00N 18°18' W 154°09'0 0.3 25.0
2016-Feb-08 03:00N 18°18' W 154°09'0 0.0 25.0
2016-Feb-08 02:00N 18°18' W 154°09'2 0.6 25.0
2016-Feb-07 23:00N 18°20' W 154°10'3 0.4 25.0
2016-Feb-07 16:00N 18°22' W 154°12'1 1.0 25.0
2016-Feb-07 15:00N 18°22' W 154°13'2 0.5 25.0
2016-Feb-07 11:00N 18°23' W 154°15'0 0.1 25.0
2016-Feb-07 07:00N 18°23' W 154°15'1 0.3 25.1
2016-Feb-07 03:00N 18°24' W 154°16'0 0.4 25.2
2016-Feb-07 02:00N 18°24' W 154°15'0 0.4 25.2
2016-Feb-07 01:00N 18°24' W 154°16'1 0.8 25.2
2016-Feb-07 00:00N 18°25' W 154°16'1 0.8 25.2
2016-Feb-06 23:00N 18°24' W 154°16'3 0.6 25.1
2016-Feb-06 19:00N 18°26' W 154°16'1 0.4 24.9
2016-Feb-06 16:00N 18°27' W 154°17'0 0.0 24.9
2016-Feb-06 15:00N 18°27' W 154°17'3 0.9 24.9
2016-Feb-06 12:00N 18°27' W 154°20'0 0.0 25.0
2016-Feb-06 08:00N 18°27' W 154°20'1 0.9 25.0
2016-Feb-06 07:00N 18°28' W 154°21'3 0.7 25.0
2016-Feb-06 03:00N 18°30' W 154°23'0 0.0 25.0
2016-Feb-06 00:00N 18°30' W 154°23'0 0.0 25.1
2016-Feb-05 23:00N 18°30' W 154°23'1 0.3 25.0
2016-Feb-05 20:00N 18°30' W 154°24'1 0.2 24.9
2016-Feb-05 17:00N 18°30' W 154°24'1 0.3 24.9
2016-Feb-05 15:00N 18°30' W 154°25'1 0.7 24.9
2016-Feb-05 13:00N 18°32' W 154°26'0 0.0 24.9
2016-Feb-05 12:00N 18°32' W 154°26'2 0.4 24.9
2016-Feb-05 08:00N 18°32' W 154°27'1 0.3 25.0
2016-Feb-05 04:00N 18°33' W 154°28'0 0.1 25.0
2016-Feb-05 00:00N 18°34' W 154°28'4 0.5 25.1
2016-Feb-04 16:00N 18°36' W 154°31'1 0.3 24.9
2016-Feb-04 13:00N 18°36' W 154°32'1 0.9 24.9
2016-Feb-04 12:00N 18°36' W 154°33'2 0.5 24.9
2016-Feb-04 08:00N 18°38' W 154°34'0 0.0 24.9
2016-Feb-04 07:00N 18°38' W 154°34'1 1.3 24.9
2016-Feb-04 06:00N 18°39' W 154°35'1 0.3 24.9
2016-Feb-04 04:00N 18°40' W 154°34'2 0.3 25.0
2016-Feb-03 20:00N 18°41' W 154°36'0 0.1 24.9
2016-Feb-03 17:00N 18°42' W 154°36'1 0.4 24.9
2016-Feb-03 15:00N 18°42' W 154°37'1 0.2 24.9
2016-Feb-03 11:00N 18°42' W 154°38'2 0.5 24.9
2016-Feb-03 06:00N 18°44' W 154°37'3 0.3 25.0
2016-Feb-02 20:00N 18°45' W 154°40'1 0.5 24.9
2016-Feb-02 18:00N 18°46' W 154°40'1 0.8 24.9
2016-Feb-02 17:00N 18°46' W 154°39'1 0.5 24.9
2016-Feb-02 16:00N 18°47' W 154°39'0 0.2 24.9
2016-Feb-02 15:00N 18°47' W 154°39'   24.9
Track history (hours):
 
Tides and Currents Weather Stations Pressure Air Temp Water Temp Dewpoint Dewpoint Depression Visibility Wind Speed Wind Dir Waves Ship Positions

Drifting buoy 46563

Last reported at 2016-Feb-12 15:00 UTC. Time now 2016-Feb-12 20:36 UTC.
Position N 18°07' W 153°47'.

Water temperature 24.8 ° C

Date/timePositionNaut miles runAvg speedWind from/ knotsBaromVisibWave heightAir tempDewpointWater temp
2016-Feb-12 15:00N 18°07' W 153°47'1 0.6 24.8
2016-Feb-12 14:00N 18°08' W 153°48'4 0.6 24.8
2016-Feb-12 06:00N 18°10' W 153°52'0 0.1 24.8
2016-Feb-12 04:00N 18°10' W 153°52'0 0.2 24.8
2016-Feb-12 03:00N 18°10' W 153°52'1 0.5 24.9
2016-Feb-12 02:00N 18°10' W 153°52'1 0.4 24.9
2016-Feb-11 23:00N 18°09' W 153°52'1 0.2 24.9
2016-Feb-11 18:00N 18°08' W 153°51'0 0.1 24.8
2016-Feb-11 15:00N 18°08' W 153°52'1 0.6 24.8
2016-Feb-11 14:00N 18°08' W 153°52'0 0.0 24.8
2016-Feb-11 13:00N 18°08' W 153°52'1 0.6 24.8
2016-Feb-11 11:00N 18°09' W 153°53'3 0.6 24.8
2016-Feb-11 06:00N 18°10' W 153°56'0 0.0 24.9
2016-Feb-11 03:00N 18°10' W 153°56'0 0.1 25.0
2016-Feb-11 01:00N 18°11' W 153°56'1 0.7 25.0
2016-Feb-11 00:00N 18°10' W 153°56'1 0.3 25.0
2016-Feb-10 20:00N 18°10' W 153°58'2 0.8 24.9
2016-Feb-10 17:00N 18°11' W 153°60'1 0.8 24.8
2016-Feb-10 16:00N 18°11' W 154°01'1 0.3 24.8
2016-Feb-10 12:00N 18°12' W 154°01'1 0.2 24.8
2016-Feb-10 08:00N 18°13' W 154°01'0 0.1 24.8
2016-Feb-10 06:00N 18°13' W 154°02'0 0.2 24.8
2016-Feb-10 04:00N 18°12' W 154°02'0 0.1 24.9
2016-Feb-10 03:00N 18°12' W 154°02'0 0.0 25.0
2016-Feb-10 02:00N 18°12' W 154°02'1 0.2 25.0
2016-Feb-09 17:00N 18°12' W 154°03'0 0.2 24.7
2016-Feb-09 16:00N 18°12' W 154°03'1 1.4 24.8
2016-Feb-09 15:00N 18°13' W 154°04'0 0.0 24.8
2016-Feb-09 14:00N 18°13' W 154°04'2 1.1 24.8
2016-Feb-09 12:00N 18°14' W 154°06'4 4.0 24.8
2016-Feb-09 11:00N 18°15' W 154°10'0 0.0 24.8
2016-Feb-09 08:00N 18°15' W 154°10'0 0.0 24.8
2016-Feb-09 07:00N 18°15' W 154°10'1 0.3 24.8
2016-Feb-09 05:00N 18°16' W 154°11'0 0.2 24.8
2016-Feb-09 04:00N 18°15' W 154°11'0 0.0 24.8
2016-Feb-09 03:00N 18°15' W 154°11'1 0.6 24.9
2016-Feb-09 01:00N 18°15' W 154°12'0 0.2 24.9
2016-Feb-08 23:00N 18°15' W 154°12'3 0.4 24.9
2016-Feb-08 15:00N 18°17' W 154°10'0 0.0 24.8
2016-Feb-08 14:00N 18°17' W 154°10'0 0.2 24.9
2016-Feb-08 12:00N 18°17' W 154°10'1 0.2 24.9
2016-Feb-08 04:00N 18°18' W 154°09'0 0.3 25.0
2016-Feb-08 03:00N 18°18' W 154°09'0 0.0 25.0
2016-Feb-08 02:00N 18°18' W 154°09'2 0.6 25.0
2016-Feb-07 23:00N 18°20' W 154°10'3 0.4 25.0
2016-Feb-07 16:00N 18°22' W 154°12'1 1.0 25.0
2016-Feb-07 15:00N 18°22' W 154°13'2 0.5 25.0
2016-Feb-07 11:00N 18°23' W 154°15'0 0.1 25.0
2016-Feb-07 07:00N 18°23' W 154°15'1 0.3 25.1
2016-Feb-07 03:00N 18°24' W 154°16'0 0.4 25.2
2016-Feb-07 02:00N 18°24' W 154°15'0 0.4 25.2
2016-Feb-07 01:00N 18°24' W 154°16'1 0.8 25.2
2016-Feb-07 00:00N 18°25' W 154°16'1 0.8 25.2
2016-Feb-06 23:00N 18°24' W 154°16'3 0.6 25.1
2016-Feb-06 19:00N 18°26' W 154°16'1 0.4 24.9
2016-Feb-06 16:00N 18°27' W 154°17'0 0.0 24.9
2016-Feb-06 15:00N 18°27' W 154°17'3 0.9 24.9
2016-Feb-06 12:00N 18°27' W 154°20'0 0.0 25.0
2016-Feb-06 08:00N 18°27' W 154°20'1 0.9 25.0
2016-Feb-06 07:00N 18°28' W 154°21'3 0.7 25.0
2016-Feb-06 03:00N 18°30' W 154°23'0 0.0 25.0
2016-Feb-06 00:00N 18°30' W 154°23'0 0.0 25.1
2016-Feb-05 23:00N 18°30' W 154°23'1 0.3 25.0
2016-Feb-05 20:00N 18°30' W 154°24'1 0.2 24.9
2016-Feb-05 17:00N 18°30' W 154°24'1 0.3 24.9
2016-Feb-05 15:00N 18°30' W 154°25'1 0.7 24.9
2016-Feb-05 13:00N 18°32' W 154°26'0 0.0 24.9
2016-Feb-05 12:00N 18°32' W 154°26'2 0.4 24.9
2016-Feb-05 08:00N 18°32' W 154°27'1 0.3 25.0
2016-Feb-05 04:00N 18°33' W 154°28'0 0.1 25.0
2016-Feb-05 00:00N 18°34' W 154°28'4 0.5 25.1
2016-Feb-04 16:00N 18°36' W 154°31'1 0.3 24.9
2016-Feb-04 13:00N 18°36' W 154°32'1 0.9 24.9
2016-Feb-04 12:00N 18°36' W 154°33'2 0.5 24.9
2016-Feb-04 08:00N 18°38' W 154°34'0 0.0 24.9
2016-Feb-04 07:00N 18°38' W 154°34'1 1.3 24.9
2016-Feb-04 06:00N 18°39' W 154°35'1 0.3 24.9
2016-Feb-04 04:00N 18°40' W 154°34'2 0.3 25.0
2016-Feb-03 20:00N 18°41' W 154°36'0 0.1 24.9
2016-Feb-03 17:00N 18°42' W 154°36'1 0.4 24.9
2016-Feb-03 15:00N 18°42' W 154°37'1 0.2 24.9
2016-Feb-03 11:00N 18°42' W 154°38'2 0.5 24.9
2016-Feb-03 06:00N 18°44' W 154°37'3 0.3 25.0
2016-Feb-02 20:00N 18°45' W 154°40'1 0.5 24.9
2016-Feb-02 18:00N 18°46' W 154°40'1 0.8 24.9
2016-Feb-02 17:00N 18°46' W 154°39'1 0.5 24.9
2016-Feb-02 16:00N 18°47' W 154°39'0 0.2 24.9
2016-Feb-02 15:00N 18°47' W 154°39'   24.9

Dump ship's entire track history